Main page
METAR-TAF:

METAR-TAF

Airports :

Aviano Air Base

Aviano, Italy

latitude: 46-02N, longitude: 012-36E, elevation: 128 m

Current weather observation

The report was made 1 hour and 3 minutes ago, at 18:55 UTC
Wind 4 kt from the Northeast
Temperature 20°C
Humidity 73%
Pressure 1015 hPa
Visibility 10 km or more
Scattered clouds at a height of 5000 ft
Scattered clouds at a height of 8000 ft

METAR: LIPA 141855Z 04004KT 9999 SCT050 SCT080 20/15 Q1015 RMK BKN VIS MIN 9999 WIND THR05 /////KT WIND THR23 /////KT A2999 BLU

Time: 21:58 (19:58 UTC)

Forecast

The report was made 2 hours and 58 minutes ago, at 17:00 UTC
Forecast valid from 14 at 18 UTC to 15 at 03 UTC
Wind 6 kt from the Southwest
Visibility 10 km or more
Scattered clouds at a height of 5000 ft
Temporary
from 15 at 00 UTC to 15 at 03 UTC
Visibility: 5000 m
mist,

TAF: LIPA 141700Z 1418/1503 22006KT 9999 SCT050 TEMPO 1500/1503 5000 BR

Weather observations and forecasts of more than 4000 airports (METAR and TAF reports).

The available stations are represented by yellow and red dots on the map.

Hover mouse over dot to see the name of the station.

Then click to see weather observations and forecasts.

To change the map : click on the green buttons with a black cross to zoom in, on the green button with a dash to zoom out, or on the green arrows for adjacent maps.


METAR-TAF: